createdAt,value
2018-04-18T00:00:07.372Z,10.02
2018-04-18T00:02:34.510Z,9.15
2018-04-18T00:05:00.712Z,9.27
2018-04-18T00:07:27.341Z,10.15
2018-04-18T00:09:53.591Z,9.30
2018-04-18T00:12:19.818Z,9.55
2018-04-18T00:14:46.031Z,9.05
2018-04-18T00:17:12.272Z,9.05
2018-04-18T00:19:38.497Z,10.27
2018-04-18T00:22:04.743Z,9.15
2018-04-18T00:24:30.980Z,8.70
2018-04-18T00:26:57.227Z,10.60
2018-04-18T00:29:23.414Z,10.05
2018-04-18T00:31:50.069Z,10.27
2018-04-18T00:34:16.344Z,10.70
2018-04-18T00:36:42.553Z,9.77
2018-04-18T00:39:08.779Z,9.48
2018-04-18T00:41:34.996Z,9.00
2018-04-18T00:44:01.260Z,10.50
2018-04-18T00:46:27.491Z,11.20
2018-04-18T00:48:53.753Z,9.07
2018-04-18T00:51:19.968Z,9.45
2018-04-18T00:53:46.585Z,9.15
2018-04-18T00:56:12.827Z,10.10
2018-04-18T00:58:39.054Z,10.82
2018-04-18T01:01:05.288Z,10.65
2018-04-18T01:03:31.508Z,11.75
2018-04-18T01:05:57.735Z,11.73
2018-04-18T01:08:23.970Z,9.20
2018-04-18T01:10:50.575Z,10.82
2018-04-18T01:13:16.818Z,9.73
2018-04-18T01:15:43.024Z,12.30
2018-04-18T01:18:09.286Z,11.85
2018-04-18T01:20:35.531Z,11.15
2018-04-18T01:23:02.109Z,11.10
2018-04-18T01:25:28.357Z,10.57
2018-04-18T01:27:54.611Z,11.55
2018-04-18T01:30:20.825Z,11.32
2018-04-18T01:32:47.080Z,11.07
2018-04-18T01:35:13.687Z,10.52
2018-04-18T01:37:39.898Z,11.65
2018-04-18T01:40:06.134Z,11.35
2018-04-18T01:42:32.387Z,12.37
2018-04-18T01:44:59.471Z,11.10
2018-04-18T01:47:25.721Z,11.40
2018-04-18T01:49:52.015Z,11.18
2018-04-18T01:52:18.268Z,11.15
2018-04-18T01:54:44.521Z,11.07
2018-04-18T01:57:10.727Z,11.02
2018-04-18T01:59:36.923Z,11.25
2018-04-18T02:02:03.178Z,10.68
2018-04-18T02:04:29.388Z,11.05
2018-04-18T02:06:56.464Z,10.68
2018-04-18T02:09:22.704Z,11.12
2018-04-18T02:11:48.967Z,10.40
2018-04-18T02:14:15.990Z,11.70
2018-04-18T02:16:42.217Z,11.63
2018-04-18T02:19:09.293Z,11.82
2018-04-18T02:21:35.582Z,12.73
2018-04-18T02:24:01.807Z,10.90
2018-04-18T02:26:28.005Z,10.85
2018-04-18T02:28:54.267Z,11.52
2018-04-18T02:31:21.137Z,12.73
2018-04-18T02:33:47.407Z,10.90
2018-04-18T02:36:13.636Z,11.52
2018-04-18T02:38:39.901Z,11.50
2018-04-18T02:41:06.155Z,11.23
2018-04-18T02:43:32.390Z,11.63
2018-04-18T02:45:58.971Z,12.13
2018-04-18T02:48:25.243Z,12.07
2018-04-18T02:50:51.501Z,12.23
2018-04-18T02:53:18.069Z,12.65
2018-04-18T02:55:45.306Z,12.85
2018-04-18T02:58:11.514Z,13.38
2018-04-18T03:00:37.752Z,13.38
2018-04-18T03:03:04.007Z,13.43
2018-04-18T03:05:30.213Z,13.70
2018-04-18T03:07:56.419Z,13.27
2018-04-18T03:10:22.662Z,14.23
2018-04-18T03:12:48.877Z,13.90
2018-04-18T03:15:15.481Z,14.57
2018-04-18T03:17:41.709Z,13.35
2018-04-18T03:20:08.987Z,14.00
2018-04-18T03:22:35.203Z,12.63
2018-04-18T03:25:01.487Z,13.48
2018-04-18T03:27:27.685Z,13.25
2018-04-18T03:29:53.926Z,12.45
2018-04-18T03:32:20.173Z,12.75
2018-04-18T03:34:46.406Z,14.00
2018-04-18T03:37:12.637Z,14.93
2018-04-18T03:39:38.861Z,13.60
2018-04-18T03:42:05.066Z,12.93
2018-04-18T03:44:31.275Z,12.88
2018-04-18T03:46:57.512Z,12.45
2018-04-18T03:49:23.740Z,12.88
2018-04-18T03:51:49.964Z,13.45
2018-04-18T03:54:17.020Z,12.63
2018-04-18T03:56:45.318Z,11.38
2018-04-18T03:59:13.432Z,12.70
2018-04-18T04:01:39.637Z,12.85
2018-04-18T04:04:05.879Z,12.63
2018-04-18T04:06:32.117Z,12.55
2018-04-18T04:08:58.333Z,12.35
2018-04-18T04:11:25.347Z,12.75
2018-04-18T04:13:52.509Z,12.55
2018-04-18T04:16:30.944Z,12.50
2018-04-18T04:19:09.456Z,13.25
2018-04-18T04:21:47.900Z,12.70
2018-04-18T04:24:26.175Z,13.23
2018-04-18T04:26:52.405Z,13.38
2018-04-18T04:29:18.620Z,13.15
2018-04-18T04:31:44.850Z,13.55
2018-04-18T04:34:11.173Z,13.05
2018-04-18T04:36:38.242Z,14.77
2018-04-18T04:39:04.510Z,13.73
2018-04-18T04:41:31.123Z,15.27
2018-04-18T04:43:57.347Z,13.05
2018-04-18T04:46:23.609Z,13.32
2018-04-18T04:48:50.205Z,12.88
2018-04-18T04:51:16.447Z,13.25
2018-04-18T04:53:42.646Z,12.55
2018-04-18T04:56:08.904Z,13.25
2018-04-18T04:58:35.162Z,13.10
2018-04-18T05:01:01.768Z,13.62
2018-04-18T05:03:28.008Z,14.07
2018-04-18T05:05:54.254Z,14.38
2018-04-18T05:08:20.831Z,14.73
2018-04-18T05:10:47.126Z,13.50
2018-04-18T05:13:13.721Z,12.98
2018-04-18T05:15:39.949Z,14.05
2018-04-18T05:18:06.180Z,13.77
2018-04-18T05:20:32.408Z,14.10
2018-04-18T05:22:58.648Z,14.70
2018-04-18T05:25:24.891Z,14.50
2018-04-18T05:27:51.528Z,14.90
2018-04-18T05:30:18.135Z,16.23
2018-04-18T05:32:44.382Z,14.93
2018-04-18T05:35:10.661Z,15.77
2018-04-18T05:37:36.874Z,15.77
2018-04-18T05:40:03.200Z,16.15
2018-04-18T05:42:29.453Z,15.70
2018-04-18T05:44:55.706Z,15.45
2018-04-18T05:47:22.009Z,17.65
2018-04-18T05:49:48.227Z,15.77
2018-04-18T05:52:14.458Z,17.05
2018-04-18T05:54:40.712Z,17.35
2018-04-18T05:57:06.967Z,17.95
2018-04-18T05:59:33.171Z,18.05
2018-04-18T06:01:59.418Z,18.23
2018-04-18T06:04:25.658Z,17.70
2018-04-18T06:06:51.896Z,18.10
2018-04-18T06:09:18.144Z,18.70
2018-04-18T06:11:44.355Z,17.95
2018-04-18T06:14:10.556Z,18.15
2018-04-18T06:16:36.822Z,18.02
2018-04-18T06:19:03.140Z,18.12
2018-04-18T06:21:29.748Z,18.37
2018-04-18T06:23:55.979Z,18.58
2018-04-18T06:26:22.194Z,20.40
2018-04-18T06:28:48.405Z,19.35
2018-04-18T06:31:14.640Z,20.10
2018-04-18T06:33:41.164Z,21.75
2018-04-18T06:36:07.775Z,21.42
2018-04-18T06:38:34.092Z,21.80
2018-04-18T06:41:00.378Z,22.37
2018-04-18T06:43:26.582Z,24.77
2018-04-18T06:45:52.888Z,24.95
2018-04-18T06:48:19.102Z,22.55
2018-04-18T06:50:45.697Z,22.90
2018-04-18T06:53:11.949Z,25.15
2018-04-18T06:55:38.172Z,25.85
2018-04-18T06:58:04.437Z,23.40
2018-04-18T07:00:30.668Z,21.17
2018-04-18T07:02:56.952Z,22.00
2018-04-18T07:05:23.180Z,22.58
2018-04-18T07:07:49.447Z,22.55
2018-04-18T07:10:16.033Z,20.58
2018-04-18T07:12:42.272Z,23.45
2018-04-18T07:15:08.524Z,23.30
2018-04-18T07:17:34.761Z,22.98
2018-04-18T07:20:01.373Z,23.20
2018-04-18T07:22:27.630Z,20.77
2018-04-18T07:24:53.929Z,22.80
2018-04-18T07:27:21.015Z,21.75
2018-04-18T07:29:47.664Z,23.95
2018-04-18T07:32:13.918Z,23.02
2018-04-18T07:34:40.209Z,25.77
2018-04-18T07:37:06.433Z,22.35
2018-04-18T07:39:32.658Z,23.77
2018-04-18T07:41:59.275Z,21.20
2018-04-18T07:44:25.549Z,21.62
2018-04-18T07:46:51.804Z,25.08
2018-04-18T07:49:18.075Z,21.12
2018-04-18T07:51:44.680Z,21.75
2018-04-18T07:54:10.917Z,21.08
2018-04-18T07:56:37.197Z,21.10
2018-04-18T07:59:03.453Z,23.40
2018-04-18T08:01:30.563Z,23.38
2018-04-18T08:03:56.814Z,23.17
2018-04-18T08:06:23.053Z,21.07
2018-04-18T08:08:49.324Z,20.40
2018-04-18T08:11:15.716Z,20.03
2018-04-18T08:13:41.964Z,21.70
2018-04-18T08:16:08.171Z,20.47
2018-04-18T08:18:34.402Z,22.30
2018-04-18T08:21:01.616Z,22.17
2018-04-18T08:23:27.852Z,20.20
2018-04-18T08:25:54.780Z,21.77
2018-04-18T08:28:21.398Z,21.70
2018-04-18T08:30:47.625Z,22.00
2018-04-18T08:33:13.837Z,20.37
2018-04-18T08:35:40.098Z,22.00
2018-04-18T08:38:06.694Z,21.50
2018-04-18T08:40:32.911Z,21.10
2018-04-18T08:42:59.173Z,21.17
2018-04-18T08:45:25.394Z,20.97
2018-04-18T08:47:51.635Z,22.50
2018-04-18T08:50:17.856Z,21.10
2018-04-18T08:52:44.120Z,21.53
2018-04-18T08:55:10.327Z,21.07
2018-04-18T08:57:36.953Z,23.23
2018-04-18T09:00:03.266Z,22.00
2018-04-18T09:02:29.525Z,21.17
2018-04-18T09:04:55.740Z,21.87
2018-04-18T09:07:22.017Z,22.57
2018-04-18T09:09:48.335Z,21.90
2018-04-18T09:12:14.502Z,19.57
2018-04-18T09:14:40.744Z,19.67
2018-04-18T09:17:06.971Z,20.40
2018-04-18T09:19:33.224Z,20.50
2018-04-18T09:21:59.819Z,19.43
2018-04-18T09:24:26.050Z,20.03
2018-04-18T09:26:52.304Z,19.60
2018-04-18T09:29:18.537Z,19.57
2018-04-18T09:31:45.126Z,20.60
2018-04-18T09:34:11.364Z,20.20
2018-04-18T09:36:37.580Z,20.47
2018-04-18T09:39:03.822Z,19.80
2018-04-18T09:41:30.072Z,18.50
2018-04-18T09:43:56.306Z,17.87
2018-04-18T09:46:22.536Z,19.77
2018-04-18T09:48:48.773Z,19.07
2018-04-18T09:51:15.369Z,18.10
2018-04-18T09:53:41.573Z,18.23
2018-04-18T09:56:07.813Z,16.87
2018-04-18T09:58:34.044Z,15.27
2018-04-18T10:01:00.258Z,13.63
2018-04-18T10:03:26.521Z,12.97
2018-04-18T10:05:52.759Z,17.53
2018-04-18T10:08:18.993Z,15.03
2018-04-18T10:10:45.207Z,14.93
2018-04-18T10:13:11.468Z,15.90
2018-04-18T10:15:38.088Z,14.07
2018-04-18T10:18:04.284Z,13.70
2018-04-18T10:20:30.484Z,14.40
2018-04-18T10:22:56.843Z,12.53
2018-04-18T10:25:23.440Z,14.00
2018-04-18T10:27:49.674Z,12.83
2018-04-18T10:30:15.940Z,13.50
2018-04-18T10:32:42.173Z,12.80
2018-04-18T10:35:08.460Z,13.33
2018-04-18T10:37:35.682Z,11.03
2018-04-18T10:40:01.973Z,13.90
2018-04-18T10:42:28.218Z,14.40
2018-04-18T10:44:54.471Z,12.70
2018-04-18T10:47:20.756Z,11.80
2018-04-18T10:49:47.004Z,13.87
2018-04-18T10:52:13.276Z,14.53
2018-04-18T10:54:39.549Z,13.77
2018-04-18T10:57:05.787Z,12.27
2018-04-18T10:59:32.983Z,12.70
2018-04-18T11:01:59.228Z,10.60
2018-04-18T11:04:25.536Z,9.73
2018-04-18T11:06:51.782Z,8.43
2018-04-18T11:09:18.508Z,8.27
2018-04-18T11:11:44.748Z,7.23
2018-04-18T11:14:10.966Z,5.93
2018-04-18T11:16:37.539Z,7.63
2018-04-18T11:19:03.783Z,8.00
2018-04-18T11:21:29.990Z,7.57
2018-04-18T11:23:56.233Z,9.93
2018-04-18T11:26:22.477Z,10.60
2018-04-18T11:28:48.691Z,10.17
2018-04-18T11:31:15.060Z,9.67
2018-04-18T11:33:41.672Z,8.80
2018-04-18T11:36:07.900Z,10.33
2018-04-18T11:38:34.139Z,9.13
2018-04-18T11:41:01.347Z,8.90
2018-04-18T11:43:27.599Z,8.70
2018-04-18T11:45:53.872Z,9.33
2018-04-18T11:48:20.438Z,8.87
2018-04-18T11:50:46.660Z,8.30
2018-04-18T11:53:12.918Z,6.90
2018-04-18T11:55:40.068Z,7.57
2018-04-18T11:58:06.365Z,6.10
2018-04-18T12:00:32.589Z,6.80
2018-04-18T12:02:58.813Z,7.10
2018-04-18T12:05:25.046Z,7.47
2018-04-18T12:07:51.298Z,6.30
2018-04-18T12:10:17.576Z,7.07
2018-04-18T12:12:51.675Z,8.63
2018-04-18T12:15:17.959Z,7.43
2018-04-18T12:17:44.153Z,8.03
2018-04-18T12:20:10.727Z,8.30
2018-04-18T12:22:37.649Z,8.27
2018-04-18T12:25:03.945Z,9.80
2018-04-18T12:27:30.203Z,9.07
2018-04-18T12:29:56.821Z,8.77
2018-04-18T12:32:23.411Z,8.00
2018-04-18T12:34:49.678Z,8.53
2018-04-18T12:37:15.913Z,8.20
2018-04-18T12:39:42.116Z,8.83
2018-04-18T12:42:08.345Z,9.70
2018-04-18T12:44:34.585Z,8.70
2018-04-18T12:47:00.866Z,10.30
2018-04-18T12:49:27.639Z,9.33
2018-04-18T12:51:53.899Z,9.10
2018-04-18T12:54:20.497Z,8.60
2018-04-18T12:56:46.716Z,8.40
2018-04-18T12:59:12.910Z,9.17
2018-04-18T13:01:39.197Z,9.47
2018-04-18T13:04:05.455Z,9.70
2018-04-18T13:06:32.094Z,9.63
2018-04-18T13:08:58.733Z,9.17
2018-04-18T13:11:25.413Z,8.90
2018-04-18T13:13:51.673Z,9.13
2018-04-18T13:16:17.932Z,9.00
2018-04-18T13:18:44.541Z,10.73
2018-04-18T13:21:10.826Z,8.73
2018-04-18T13:23:37.061Z,8.00
2018-04-18T13:26:03.320Z,7.47
2018-04-18T13:28:29.580Z,7.53
2018-04-18T13:30:56.200Z,6.80
2018-04-18T13:33:22.821Z,6.57
2018-04-18T13:35:49.123Z,7.70
2018-04-18T13:38:15.412Z,7.27
2018-04-18T13:40:41.705Z,7.87
2018-04-18T13:43:07.942Z,9.20
2018-04-18T13:45:34.219Z,9.50
2018-04-18T13:48:00.528Z,9.93
2018-04-18T13:50:26.761Z,10.50
2018-04-18T13:52:53.027Z,8.30
2018-04-18T13:55:19.304Z,9.70
2018-04-18T13:57:45.923Z,8.00
2018-04-18T14:00:12.842Z,9.60
2018-04-18T14:02:39.092Z,10.77
2018-04-18T14:05:05.335Z,10.05
2018-04-18T14:07:31.581Z,9.77
2018-04-18T14:09:57.796Z,10.85
2018-04-18T14:12:24.035Z,8.55
2018-04-18T14:14:50.290Z,7.57
2018-04-18T14:17:16.528Z,7.37
2018-04-18T14:19:42.781Z,7.63
2018-04-18T14:22:09.004Z,8.60
2018-04-18T14:24:35.223Z,9.07
2018-04-18T14:27:01.469Z,7.60
2018-04-18T14:29:28.202Z,8.90
2018-04-18T14:31:54.510Z,8.87
2018-04-18T14:34:20.669Z,7.60
2018-04-18T14:36:46.941Z,7.63
2018-04-18T14:39:13.222Z,7.20
2018-04-18T14:41:39.488Z,7.30
2018-04-18T14:44:06.123Z,10.10
2018-04-18T14:46:32.759Z,10.67
2018-04-18T14:48:59.362Z,9.67
2018-04-18T14:51:25.648Z,9.20
2018-04-18T14:53:51.967Z,7.17
2018-04-18T14:56:18.919Z,6.33
2018-04-18T14:58:45.222Z,7.63
2018-04-18T15:01:11.458Z,7.23
2018-04-18T15:03:37.718Z,6.47
2018-04-18T15:06:03.931Z,6.03
2018-04-18T15:08:30.149Z,6.50
2018-04-18T15:10:56.392Z,6.20
2018-04-18T15:13:22.659Z,6.63
2018-04-18T15:15:48.918Z,5.97
2018-04-18T15:18:15.163Z,7.23
2018-04-18T15:20:41.761Z,8.13
2018-04-18T15:23:08.034Z,6.30
2018-04-18T15:25:34.297Z,6.23
2018-04-18T15:28:00.557Z,5.47
2018-04-18T15:30:26.781Z,6.60
2018-04-18T15:32:53.085Z,7.20
2018-04-18T15:35:19.371Z,7.80
2018-04-18T15:37:46.028Z,6.87
2018-04-18T15:40:12.321Z,6.87
2018-04-18T15:42:38.551Z,7.97
2018-04-18T15:45:04.862Z,7.17
2018-04-18T15:47:31.163Z,7.63
2018-04-18T15:49:57.431Z,7.13
2018-04-18T15:52:23.696Z,7.37
2018-04-18T15:54:49.995Z,8.83
2018-04-18T15:57:16.322Z,8.00
2018-04-18T15:59:42.574Z,9.17
2018-04-18T16:02:09.465Z,7.20
2018-04-18T16:04:35.747Z,7.80
2018-04-18T16:07:02.391Z,8.40
2018-04-18T16:09:29.070Z,9.00
2018-04-18T16:11:55.317Z,7.20
2018-04-18T16:14:21.540Z,7.03
2018-04-18T16:16:47.788Z,8.07
2018-04-18T16:19:14.023Z,6.50
2018-04-18T16:21:40.317Z,8.17
2018-04-18T16:24:06.570Z,8.57
2018-04-18T16:26:32.833Z,7.13
2018-04-18T16:29:00.237Z,8.53
2018-04-18T16:31:26.455Z,6.77
2018-04-18T16:33:52.687Z,7.53
2018-04-18T16:36:18.926Z,6.83
2018-04-18T16:38:45.230Z,7.17
2018-04-18T16:41:11.462Z,8.27
2018-04-18T16:43:37.674Z,7.47
2018-04-18T16:46:03.918Z,7.40
2018-04-18T16:48:30.185Z,8.10
2018-04-18T16:50:56.461Z,8.03
2018-04-18T16:53:22.727Z,7.80
2018-04-18T16:55:48.972Z,7.23
2018-04-18T16:58:15.244Z,7.87
2018-04-18T17:00:41.481Z,7.13
2018-04-18T17:03:07.734Z,7.80
2018-04-18T17:05:34.008Z,7.83
2018-04-18T17:08:00.227Z,7.30
2018-04-18T17:10:26.493Z,7.37
2018-04-18T17:12:52.787Z,7.20
2018-04-18T17:15:19.048Z,7.50
2018-04-18T17:17:45.391Z,8.13
2018-04-18T17:20:11.643Z,9.70
2018-04-18T17:22:37.871Z,8.30
2018-04-18T17:25:04.107Z,9.63
2018-04-18T17:27:31.158Z,8.13
2018-04-18T17:29:57.440Z,8.70
2018-04-18T17:32:23.713Z,9.20
2018-04-18T17:34:49.981Z,8.20
2018-04-18T17:37:16.594Z,7.40
2018-04-18T17:39:42.840Z,7.83
2018-04-18T17:42:09.461Z,7.40
2018-04-18T17:44:35.749Z,7.00
2018-04-18T17:47:02.080Z,6.93
2018-04-18T17:49:28.378Z,7.43
2018-04-18T17:51:54.644Z,6.90
2018-04-18T17:54:20.966Z,6.30
2018-04-18T17:56:47.553Z,6.80
2018-04-18T17:59:14.223Z,7.97
2018-04-18T18:01:40.494Z,7.60
2018-04-18T18:04:06.741Z,7.00
2018-04-18T18:06:33.030Z,7.60
2018-04-18T18:08:59.298Z,9.07
2018-04-18T18:11:25.600Z,8.93
2018-04-18T18:13:51.916Z,9.97
2018-04-18T18:16:18.156Z,10.30
2018-04-18T18:18:44.426Z,9.90
2018-04-18T18:21:11.086Z,9.97
2018-04-18T18:23:37.365Z,10.00
2018-04-18T18:26:03.642Z,10.40
2018-04-18T18:28:29.930Z,9.50
2018-04-18T18:30:56.251Z,10.80
2018-04-18T18:33:22.491Z,10.90
2018-04-18T18:35:48.760Z,11.73
2018-04-18T18:38:15.461Z,10.13
2018-04-18T18:40:41.780Z,10.60
2018-04-18T18:43:08.834Z,10.67
2018-04-18T18:45:35.104Z,10.47
2018-04-18T18:48:01.768Z,9.63
2018-04-18T18:50:28.643Z,9.70
2018-04-18T18:52:54.911Z,9.73
2018-04-18T18:55:21.236Z,10.20
2018-04-18T18:57:47.514Z,8.70
2018-04-18T19:00:13.779Z,10.40
2018-04-18T19:02:40.075Z,9.57
2018-04-18T19:05:06.428Z,10.13
2018-04-18T19:07:32.703Z,9.47
2018-04-18T19:09:58.990Z,9.90
2018-04-18T19:12:25.282Z,9.80
2018-04-18T19:14:51.509Z,11.10
2018-04-18T19:17:17.779Z,9.93
2018-04-18T19:19:45.034Z,10.73
2018-04-18T19:22:11.711Z,10.60
2018-04-18T19:24:37.975Z,12.33
2018-04-18T19:27:04.260Z,10.23
2018-04-18T19:29:31.517Z,10.30
2018-04-18T19:31:57.762Z,10.50
2018-04-18T19:34:24.025Z,10.20
2018-04-18T19:36:50.326Z,10.77
2018-04-18T19:39:16.655Z,11.63
2018-04-18T19:41:42.929Z,10.07
2018-04-18T19:44:09.227Z,10.43
2018-04-18T19:46:35.551Z,10.47
2018-04-18T19:49:01.815Z,10.90
2018-04-18T19:51:28.103Z,11.50
2018-04-18T19:53:54.361Z,10.57
2018-04-18T19:56:20.882Z,12.40
2018-04-18T19:58:47.205Z,10.80
2018-04-18T20:01:13.545Z,11.37
2018-04-18T20:03:39.753Z,10.53
2018-04-18T20:06:06.066Z,11.27
2018-04-18T20:08:32.374Z,11.80
2018-04-18T20:10:58.648Z,11.60
2018-04-18T20:13:25.041Z,11.37
2018-04-18T20:15:51.311Z,12.10
2018-04-18T20:18:17.625Z,12.50
2018-04-18T20:20:43.911Z,11.40
2018-04-18T20:23:10.158Z,11.90
2018-04-18T20:25:36.392Z,13.67
2018-04-18T20:28:02.662Z,12.33
2018-04-18T20:30:29.592Z,15.17
2018-04-18T20:32:55.864Z,14.20
2018-04-18T20:35:22.136Z,14.53
2018-04-18T20:37:48.434Z,12.13
2018-04-18T20:40:15.090Z,12.60
2018-04-18T20:42:41.373Z,13.13
2018-04-18T20:45:14.570Z,12.80
2018-04-18T20:47:40.767Z,13.27
2018-04-18T20:50:07.009Z,13.57
2018-04-18T20:52:33.280Z,12.50
2018-04-18T20:54:59.564Z,14.30
2018-04-18T20:57:25.836Z,13.37
2018-04-18T20:59:52.064Z,13.27
2018-04-18T21:02:18.401Z,14.30
2018-04-18T21:04:44.647Z,14.43
2018-04-18T21:07:11.052Z,14.73
2018-04-18T21:09:37.334Z,16.50
2018-04-18T21:12:03.596Z,16.37
2018-04-18T21:14:29.844Z,15.37
2018-04-18T21:16:56.129Z,18.10
2018-04-18T21:19:23.349Z,15.63
2018-04-18T21:21:49.568Z,16.50
2018-04-18T21:24:16.165Z,17.97
2018-04-18T21:26:42.467Z,17.40
2018-04-18T21:29:08.685Z,16.97
2018-04-18T21:31:34.907Z,16.97
2018-04-18T21:34:01.224Z,17.50
2018-04-18T21:36:27.476Z,17.00
2018-04-18T21:38:53.741Z,16.80
2018-04-18T21:41:20.001Z,17.83
2018-04-18T21:43:46.650Z,16.80
2018-04-18T21:46:12.914Z,15.63
2018-04-18T21:48:39.214Z,16.80
2018-04-18T21:51:05.461Z,16.08
2018-04-18T21:53:31.716Z,17.98
2018-04-18T21:55:57.989Z,18.17
2018-04-18T21:58:24.589Z,19.33
2018-04-18T22:00:51.161Z,16.63
2018-04-18T22:03:17.537Z,16.50
2018-04-18T22:05:43.790Z,16.95
2018-04-18T22:08:10.012Z,17.97
2018-04-18T22:10:36.291Z,17.77
2018-04-18T22:13:02.521Z,17.98
2018-04-18T22:15:28.758Z,18.10
2018-04-18T22:17:54.996Z,17.70
2018-04-18T22:20:21.250Z,17.77
2018-04-18T22:22:47.494Z,19.05
2018-04-18T22:25:13.719Z,19.60
2018-04-18T22:27:40.997Z,18.85
2018-04-18T22:30:07.986Z,18.62
2018-04-18T22:32:34.233Z,20.10
2018-04-18T22:35:00.460Z,19.12
2018-04-18T22:37:26.680Z,19.08
2018-04-18T22:39:52.930Z,18.65
2018-04-18T22:42:19.142Z,17.58
2018-04-18T22:44:45.438Z,16.85
2018-04-18T22:47:11.751Z,17.10
2018-04-18T22:49:37.970Z,18.42
2018-04-18T22:52:04.220Z,17.98
2018-04-18T22:54:30.474Z,18.17
2018-04-18T22:56:56.691Z,19.37
2018-04-18T22:59:22.895Z,20.10
2018-04-18T23:01:49.149Z,19.05
2018-04-18T23:04:15.379Z,19.85
2018-04-18T23:06:41.603Z,18.73
2018-04-18T23:09:07.909Z,18.73
2018-04-18T23:11:34.139Z,18.45
2018-04-18T23:14:00.389Z,17.05
2018-04-18T23:16:26.639Z,19.55
2018-04-18T23:18:52.899Z,18.35
2018-04-18T23:21:19.136Z,18.35
2018-04-18T23:23:45.411Z,18.10
2018-04-18T23:26:11.648Z,18.77
2018-04-18T23:28:37.847Z,17.77
2018-04-18T23:31:04.083Z,17.70
2018-04-18T23:33:30.295Z,18.70
2018-04-18T23:35:56.495Z,20.02
2018-04-18T23:38:22.734Z,18.23
2018-04-18T23:40:49.335Z,18.73
2018-04-18T23:43:15.557Z,17.62
2018-04-18T23:45:41.786Z,17.75
2018-04-18T23:48:08.813Z,18.48
2018-04-18T23:50:35.057Z,18.95
2018-04-18T23:53:01.305Z,19.48
2018-04-18T23:55:28.344Z,19.60
2018-04-18T23:57:54.546Z,19.90
